sensor_id;sensor_type;location;lat;lon;timestamp;temperature;humidity
4856;DHT22;2442;48.676;7.986;2022-12-11T00:02:24;-2.60;99.90
4856;DHT22;2442;48.676;7.986;2022-12-11T00:04:51;-2.70;99.90
4856;DHT22;2442;48.676;7.986;2022-12-11T00:07:18;-2.60;99.90
4856;DHT22;2442;48.676;7.986;2022-12-11T00:09:44;-2.40;99.90
4856;DHT22;2442;48.676;7.986;2022-12-11T00:12:11;-2.40;99.90
4856;DHT22;2442;48.676;7.986;2022-12-11T00:14:38;-2.50;99.90
4856;DHT22;2442;48.676;7.986;2022-12-11T00:17:05;-2.40;99.90
4856;DHT22;2442;48.676;7.986;2022-12-11T00:19:33;-2.30;99.90
4856;DHT22;2442;48.676;7.986;2022-12-11T00:22:00;-2.30;99.90
4856;DHT22;2442;48.676;7.986;2022-12-11T00:24:27;-2.30;99.90
4856;DHT22;2442;48.676;7.986;2022-12-11T00:26:53;-2.40;99.90
4856;DHT22;2442;48.676;7.986;2022-12-11T00:29:20;-2.50;99.90
4856;DHT22;2442;48.676;7.986;2022-12-11T00:31:47;-2.60;99.90
4856;DHT22;2442;48.676;7.986;2022-12-11T00:34:14;-2.20;99.90
4856;DHT22;2442;48.676;7.986;2022-12-11T00:36:42;-2.30;99.90
4856;DHT22;2442;48.676;7.986;2022-12-11T00:39:09;-2.40;99.90
4856;DHT22;2442;48.676;7.986;2022-12-11T00:41:36;-2.60;99.90
4856;DHT22;2442;48.676;7.986;2022-12-11T00:44:03;-2.70;99.90
4856;DHT22;2442;48.676;7.986;2022-12-11T00:46:30;-2.80;99.90
4856;DHT22;2442;48.676;7.986;2022-12-11T00:48:57;-2.80;99.90
4856;DHT22;2442;48.676;7.986;2022-12-11T00:51:24;-2.90;99.90
4856;DHT22;2442;48.676;7.986;2022-12-11T00:53:52;-2.90;99.90
4856;DHT22;2442;48.676;7.986;2022-12-11T00:56:21;-2.90;99.90
4856;DHT22;2442;48.676;7.986;2022-12-11T00:58:48;-2.80;99.90
4856;DHT22;2442;48.676;7.986;2022-12-11T01:01:17;-2.80;99.90
4856;DHT22;2442;48.676;7.986;2022-12-11T01:03:44;-2.70;99.90
4856;DHT22;2442;48.676;7.986;2022-12-11T01:06:13;-2.70;99.90
4856;DHT22;2442;48.676;7.986;2022-12-11T01:08:40;-2.70;99.90
4856;DHT22;2442;48.676;7.986;2022-12-11T01:11:11;-2.70;99.90
4856;DHT22;2442;48.676;7.986;2022-12-11T01:13:37;-2.70;99.90
4856;DHT22;2442;48.676;7.986;2022-12-11T01:16:06;-2.60;99.90
4856;DHT22;2442;48.676;7.986;2022-12-11T01:18:33;-2.60;99.90
4856;DHT22;2442;48.676;7.986;2022-12-11T01:21:04;-2.60;99.90
4856;DHT22;2442;48.676;7.986;2022-12-11T01:23:31;-2.70;99.90
4856;DHT22;2442;48.676;7.986;2022-12-11T01:26:04;-2.80;99.90
4856;DHT22;2442;48.676;7.986;2022-12-11T01:28:32;-2.80;99.90
4856;DHT22;2442;48.676;7.986;2022-12-11T01:30:59;-2.70;99.90
4856;DHT22;2442;48.676;7.986;2022-12-11T01:33:26;-2.80;99.90
4856;DHT22;2442;48.676;7.986;2022-12-11T01:35:53;-2.70;99.90
4856;DHT22;2442;48.676;7.986;2022-12-11T01:38:20;-2.70;99.90
4856;DHT22;2442;48.676;7.986;2022-12-11T01:40:47;-2.70;99.90
4856;DHT22;2442;48.676;7.986;2022-12-11T01:43:15;-2.80;99.90
4856;DHT22;2442;48.676;7.986;2022-12-11T01:45:45;-2.70;99.90
4856;DHT22;2442;48.676;7.986;2022-12-11T01:48:16;-2.70;99.90
4856;DHT22;2442;48.676;7.986;2022-12-11T01:50:46;-2.80;99.90
4856;DHT22;2442;48.676;7.986;2022-12-11T01:53:18;-2.80;99.90
4856;DHT22;2442;48.676;7.986;2022-12-11T01:55:46;-2.80;99.90
4856;DHT22;2442;48.676;7.986;2022-12-11T01:58:15;-2.70;99.90
4856;DHT22;2442;48.676;7.986;2022-12-11T02:00:45;-2.80;99.90
4856;DHT22;2442;48.676;7.986;2022-12-11T02:03:12;-2.90;99.90
4856;DHT22;2442;48.676;7.986;2022-12-11T02:05:39;-2.90;99.90
4856;DHT22;2442;48.676;7.986;2022-12-11T02:08:06;-2.90;99.90
4856;DHT22;2442;48.676;7.986;2022-12-11T02:10:48;-2.90;99.90
4856;DHT22;2442;48.676;7.986;2022-12-11T02:13:25;-3.00;99.90
4856;DHT22;2442;48.676;7.986;2022-12-11T02:16:02;-3.00;99.90
4856;DHT22;2442;48.676;7.986;2022-12-11T02:18:33;-2.90;99.90
4856;DHT22;2442;48.676;7.986;2022-12-11T02:21:07;-2.80;99.90
4856;DHT22;2442;48.676;7.986;2022-12-11T02:23:59;-2.80;99.90
4856;DHT22;2442;48.676;7.986;2022-12-11T02:26:46;-2.80;99.90
4856;DHT22;2442;48.676;7.986;2022-12-11T02:29:19;-3.00;99.90
4856;DHT22;2442;48.676;7.986;2022-12-11T02:31:52;-3.00;99.90
4856;DHT22;2442;48.676;7.986;2022-12-11T02:34:26;-3.10;99.90
4856;DHT22;2442;48.676;7.986;2022-12-11T02:36:56;-3.00;99.90
4856;DHT22;2442;48.676;7.986;2022-12-11T02:39:26;-3.00;99.90
4856;DHT22;2442;48.676;7.986;2022-12-11T02:41:54;-3.10;99.90
4856;DHT22;2442;48.676;7.986;2022-12-11T02:44:25;-3.30;99.90
4856;DHT22;2442;48.676;7.986;2022-12-11T02:46:54;-3.40;99.90
4856;DHT22;2442;48.676;7.986;2022-12-11T02:49:22;-3.50;99.90
4856;DHT22;2442;48.676;7.986;2022-12-11T02:51:50;-3.50;99.90
4856;DHT22;2442;48.676;7.986;2022-12-11T02:54:20;-3.60;99.90
4856;DHT22;2442;48.676;7.986;2022-12-11T02:56:51;-3.60;99.90
4856;DHT22;2442;48.676;7.986;2022-12-11T02:59:24;-3.70;99.90
4856;DHT22;2442;48.676;7.986;2022-12-11T03:01:52;-3.60;99.90
4856;DHT22;2442;48.676;7.986;2022-12-11T03:04:19;-3.70;99.90
4856;DHT22;2442;48.676;7.986;2022-12-11T03:06:53;-3.70;99.90
4856;DHT22;2442;48.676;7.986;2022-12-11T03:09:20;-3.50;99.90
4856;DHT22;2442;48.676;7.986;2022-12-11T03:11:47;-3.40;99.90
4856;DHT22;2442;48.676;7.986;2022-12-11T03:14:14;-3.40;99.90
4856;DHT22;2442;48.676;7.986;2022-12-11T03:16:47;-3.40;99.90
4856;DHT22;2442;48.676;7.986;2022-12-11T03:19:27;-3.40;99.90
4856;DHT22;2442;48.676;7.986;2022-12-11T03:21:58;-3.30;99.90
4856;DHT22;2442;48.676;7.986;2022-12-11T03:24:29;-3.30;99.90
4856;DHT22;2442;48.676;7.986;2022-12-11T03:27:03;-3.20;99.90
4856;DHT22;2442;48.676;7.986;2022-12-11T03:29:35;-2.80;99.90
4856;DHT22;2442;48.676;7.986;2022-12-11T03:32:07;-2.90;99.90
4856;DHT22;2442;48.676;7.986;2022-12-11T03:34:40;-2.90;99.90
4856;DHT22;2442;48.676;7.986;2022-12-11T03:37:09;-2.80;99.90
4856;DHT22;2442;48.676;7.986;2022-12-11T03:39:39;-2.80;99.90
4856;DHT22;2442;48.676;7.986;2022-12-11T03:42:11;-2.70;99.90
4856;DHT22;2442;48.676;7.986;2022-12-11T03:44:39;-2.70;99.90
4856;DHT22;2442;48.676;7.986;2022-12-11T03:47:09;-2.70;99.90
4856;DHT22;2442;48.676;7.986;2022-12-11T03:49:39;-2.60;99.90
4856;DHT22;2442;48.676;7.986;2022-12-11T03:52:09;-2.60;99.90
4856;DHT22;2442;48.676;7.986;2022-12-11T03:54:37;-2.50;99.90
4856;DHT22;2442;48.676;7.986;2022-12-11T03:57:09;-2.50;99.90
4856;DHT22;2442;48.676;7.986;2022-12-11T03:59:37;-2.40;99.90
4856;DHT22;2442;48.676;7.986;2022-12-11T04:02:04;-2.10;99.90
4856;DHT22;2442;48.676;7.986;2022-12-11T04:04:37;-2.20;99.90
4856;DHT22;2442;48.676;7.986;2022-12-11T04:07:04;-2.10;99.90
4856;DHT22;2442;48.676;7.986;2022-12-11T04:09:31;-2.10;99.90
4856;DHT22;2442;48.676;7.986;2022-12-11T04:11:58;-2.20;99.90
4856;DHT22;2442;48.676;7.986;2022-12-11T04:14:25;-2.20;99.90
4856;DHT22;2442;48.676;7.986;2022-12-11T04:17:09;-2.20;99.90
4856;DHT22;2442;48.676;7.986;2022-12-11T04:19:37;-2.30;99.90
4856;DHT22;2442;48.676;7.986;2022-12-11T04:22:22;-2.40;99.90
4856;DHT22;2442;48.676;7.986;2022-12-11T04:25:07;-2.40;99.90
4856;DHT22;2442;48.676;7.986;2022-12-11T04:27:34;-2.40;99.90
4856;DHT22;2442;48.676;7.986;2022-12-11T04:30:18;-2.40;99.90
4856;DHT22;2442;48.676;7.986;2022-12-11T04:32:46;-2.40;99.90
4856;DHT22;2442;48.676;7.986;2022-12-11T04:35:15;-2.40;99.90
4856;DHT22;2442;48.676;7.986;2022-12-11T04:37:42;-2.50;99.90
4856;DHT22;2442;48.676;7.986;2022-12-11T04:40:12;-2.50;99.90
4856;DHT22;2442;48.676;7.986;2022-12-11T04:42:39;-2.50;99.90
4856;DHT22;2442;48.676;7.986;2022-12-11T04:45:07;-2.50;99.90
4856;DHT22;2442;48.676;7.986;2022-12-11T04:47:35;-2.50;99.90
4856;DHT22;2442;48.676;7.986;2022-12-11T04:50:02;-2.50;99.90
4856;DHT22;2442;48.676;7.986;2022-12-11T04:52:31;-2.50;99.90
4856;DHT22;2442;48.676;7.986;2022-12-11T04:54:58;-2.50;99.90
4856;DHT22;2442;48.676;7.986;2022-12-11T04:57:25;-2.50;99.90
4856;DHT22;2442;48.676;7.986;2022-12-11T04:59:51;-2.50;99.90
4856;DHT22;2442;48.676;7.986;2022-12-11T05:02:18;-2.50;99.90
4856;DHT22;2442;48.676;7.986;2022-12-11T05:04:45;-2.40;99.90
4856;DHT22;2442;48.676;7.986;2022-12-11T05:07:12;-2.40;99.90
4856;DHT22;2442;48.676;7.986;2022-12-11T05:09:40;-2.30;99.90
4856;DHT22;2442;48.676;7.986;2022-12-11T05:12:07;-2.40;99.90
4856;DHT22;2442;48.676;7.986;2022-12-11T05:14:34;-2.40;99.90
4856;DHT22;2442;48.676;7.986;2022-12-11T05:17:00;-2.40;99.90
4856;DHT22;2442;48.676;7.986;2022-12-11T05:19:27;-2.40;99.90
4856;DHT22;2442;48.676;7.986;2022-12-11T05:21:54;-2.40;99.90
4856;DHT22;2442;48.676;7.986;2022-12-11T05:24:21;-2.40;99.90
4856;DHT22;2442;48.676;7.986;2022-12-11T05:26:49;-2.20;99.90
4856;DHT22;2442;48.676;7.986;2022-12-11T05:29:16;-2.40;99.90
4856;DHT22;2442;48.676;7.986;2022-12-11T05:31:43;-2.30;99.90
4856;DHT22;2442;48.676;7.986;2022-12-11T05:34:10;-2.30;99.90
4856;DHT22;2442;48.676;7.986;2022-12-11T05:36:37;-2.30;99.90
4856;DHT22;2442;48.676;7.986;2022-12-11T05:39:04;-2.20;99.90
4856;DHT22;2442;48.676;7.986;2022-12-11T05:41:31;-2.30;99.90
4856;DHT22;2442;48.676;7.986;2022-12-11T05:43:59;-2.30;99.90
4856;DHT22;2442;48.676;7.986;2022-12-11T05:46:28;-2.30;99.90
4856;DHT22;2442;48.676;7.986;2022-12-11T05:48:56;-2.30;99.90
4856;DHT22;2442;48.676;7.986;2022-12-11T05:51:23;-2.30;99.90
4856;DHT22;2442;48.676;7.986;2022-12-11T05:53:51;-2.20;99.90
4856;DHT22;2442;48.676;7.986;2022-12-11T05:56:20;-2.30;99.90
4856;DHT22;2442;48.676;7.986;2022-12-11T05:58:48;-2.30;99.90
4856;DHT22;2442;48.676;7.986;2022-12-11T06:01:19;-2.30;99.90
4856;DHT22;2442;48.676;7.986;2022-12-11T06:03:46;-2.30;99.90
4856;DHT22;2442;48.676;7.986;2022-12-11T06:06:13;-2.30;99.90
4856;DHT22;2442;48.676;7.986;2022-12-11T06:08:40;-2.30;99.90
4856;DHT22;2442;48.676;7.986;2022-12-11T06:11:08;-2.30;99.90
4856;DHT22;2442;48.676;7.986;2022-12-11T06:13:35;-2.40;99.90
4856;DHT22;2442;48.676;7.986;2022-12-11T06:16:02;-2.40;99.90
4856;DHT22;2442;48.676;7.986;2022-12-11T06:18:34;-2.40;99.90
4856;DHT22;2442;48.676;7.986;2022-12-11T06:21:09;-2.40;99.90
4856;DHT22;2442;48.676;7.986;2022-12-11T06:23:35;-2.40;99.90
4856;DHT22;2442;48.676;7.986;2022-12-11T06:26:03;-2.50;99.90
4856;DHT22;2442;48.676;7.986;2022-12-11T06:28:29;-2.50;99.90
4856;DHT22;2442;48.676;7.986;2022-12-11T06:30:57;-2.50;99.90
4856;DHT22;2442;48.676;7.986;2022-12-11T06:33:24;-2.40;99.90
4856;DHT22;2442;48.676;7.986;2022-12-11T06:35:52;-2.40;99.90
4856;DHT22;2442;48.676;7.986;2022-12-11T06:38:19;-2.40;99.90
4856;DHT22;2442;48.676;7.986;2022-12-11T06:40:53;-2.50;99.90
4856;DHT22;2442;48.676;7.986;2022-12-11T06:43:20;-2.50;99.90
4856;DHT22;2442;48.676;7.986;2022-12-11T06:45:47;-2.50;99.90
4856;DHT22;2442;48.676;7.986;2022-12-11T06:48:14;-2.50;99.90
4856;DHT22;2442;48.676;7.986;2022-12-11T06:50:41;-2.50;99.90
4856;DHT22;2442;48.676;7.986;2022-12-11T06:53:11;-2.40;99.90
4856;DHT22;2442;48.676;7.986;2022-12-11T06:55:39;-2.40;99.90
4856;DHT22;2442;48.676;7.986;2022-12-11T06:58:06;-2.40;99.90
4856;DHT22;2442;48.676;7.986;2022-12-11T07:00:34;-2.40;99.90
4856;DHT22;2442;48.676;7.986;2022-12-11T07:03:01;-2.40;99.90
4856;DHT22;2442;48.676;7.986;2022-12-11T07:05:27;-2.40;99.90
4856;DHT22;2442;48.676;7.986;2022-12-11T07:07:54;-2.40;99.90
4856;DHT22;2442;48.676;7.986;2022-12-11T07:10:23;-2.40;99.90
4856;DHT22;2442;48.676;7.986;2022-12-11T07:12:51;-2.40;99.90
4856;DHT22;2442;48.676;7.986;2022-12-11T07:15:18;-2.40;99.90
4856;DHT22;2442;48.676;7.986;2022-12-11T07:17:45;-2.20;99.90
4856;DHT22;2442;48.676;7.986;2022-12-11T07:20:11;-2.20;99.90
4856;DHT22;2442;48.676;7.986;2022-12-11T07:22:39;-2.20;99.90
4856;DHT22;2442;48.676;7.986;2022-12-11T07:25:06;-2.20;99.90
4856;DHT22;2442;48.676;7.986;2022-12-11T07:27:34;-2.20;99.90
4856;DHT22;2442;48.676;7.986;2022-12-11T07:30:01;-2.20;99.90
4856;DHT22;2442;48.676;7.986;2022-12-11T07:32:28;-2.10;99.90
4856;DHT22;2442;48.676;7.986;2022-12-11T07:34:55;-2.20;99.90
4856;DHT22;2442;48.676;7.986;2022-12-11T07:37:22;-2.10;99.90
4856;DHT22;2442;48.676;7.986;2022-12-11T07:39:49;-2.10;99.90
4856;DHT22;2442;48.676;7.986;2022-12-11T07:42:16;-2.10;99.90
4856;DHT22;2442;48.676;7.986;2022-12-11T07:44:45;-2.10;99.90
4856;DHT22;2442;48.676;7.986;2022-12-11T07:47:12;-2.00;99.90
4856;DHT22;2442;48.676;7.986;2022-12-11T07:49:39;-2.00;99.90
4856;DHT22;2442;48.676;7.986;2022-12-11T07:52:05;-2.00;99.90
4856;DHT22;2442;48.676;7.986;2022-12-11T07:54:32;-2.00;99.90
4856;DHT22;2442;48.676;7.986;2022-12-11T07:56:59;-2.00;99.90
4856;DHT22;2442;48.676;7.986;2022-12-11T07:59:26;-1.90;99.90
4856;DHT22;2442;48.676;7.986;2022-12-11T08:01:54;-1.90;99.90
4856;DHT22;2442;48.676;7.986;2022-12-11T08:04:21;-2.00;99.90
4856;DHT22;2442;48.676;7.986;2022-12-11T08:06:48;-2.00;99.90
4856;DHT22;2442;48.676;7.986;2022-12-11T08:09:15;-2.00;99.90
4856;DHT22;2442;48.676;7.986;2022-12-11T08:11:42;-2.00;99.90
4856;DHT22;2442;48.676;7.986;2022-12-11T08:14:09;-2.00;99.90
4856;DHT22;2442;48.676;7.986;2022-12-11T08:16:36;-2.00;99.90
4856;DHT22;2442;48.676;7.986;2022-12-11T08:19:09;-2.00;99.90
4856;DHT22;2442;48.676;7.986;2022-12-11T08:21:35;-1.90;99.90
4856;DHT22;2442;48.676;7.986;2022-12-11T08:24:03;-2.00;99.90
4856;DHT22;2442;48.676;7.986;2022-12-11T08:26:30;-2.00;99.90
4856;DHT22;2442;48.676;7.986;2022-12-11T08:28:57;-1.80;99.90
4856;DHT22;2442;48.676;7.986;2022-12-11T08:31:25;-1.80;99.90
4856;DHT22;2442;48.676;7.986;2022-12-11T08:33:54;-1.80;99.90
4856;DHT22;2442;48.676;7.986;2022-12-11T08:36:24;-1.80;99.90
4856;DHT22;2442;48.676;7.986;2022-12-11T08:38:51;-1.80;99.90
4856;DHT22;2442;48.676;7.986;2022-12-11T08:41:21;-1.70;99.90
4856;DHT22;2442;48.676;7.986;2022-12-11T08:43:49;-1.70;99.90
4856;DHT22;2442;48.676;7.986;2022-12-11T08:46:20;-1.70;99.90
4856;DHT22;2442;48.676;7.986;2022-12-11T08:48:47;-1.70;99.90
4856;DHT22;2442;48.676;7.986;2022-12-11T08:51:17;-1.60;99.90
4856;DHT22;2442;48.676;7.986;2022-12-11T08:53:46;-1.60;99.90
4856;DHT22;2442;48.676;7.986;2022-12-11T08:56:15;-1.60;99.90
4856;DHT22;2442;48.676;7.986;2022-12-11T08:58:43;-1.50;99.90
4856;DHT22;2442;48.676;7.986;2022-12-11T09:01:11;-1.50;99.90
4856;DHT22;2442;48.676;7.986;2022-12-11T09:03:41;-1.50;99.90
4856;DHT22;2442;48.676;7.986;2022-12-11T09:06:10;-1.50;99.90
4856;DHT22;2442;48.676;7.986;2022-12-11T09:08:37;-1.40;99.90
4856;DHT22;2442;48.676;7.986;2022-12-11T09:11:07;-1.40;99.90
4856;DHT22;2442;48.676;7.986;2022-12-11T09:13:35;-1.40;99.90
4856;DHT22;2442;48.676;7.986;2022-12-11T09:16:02;-1.30;99.90
4856;DHT22;2442;48.676;7.986;2022-12-11T09:18:29;-1.40;99.90
4856;DHT22;2442;48.676;7.986;2022-12-11T09:20:58;-1.40;99.90
4856;DHT22;2442;48.676;7.986;2022-12-11T09:23:25;-1.40;99.90
4856;DHT22;2442;48.676;7.986;2022-12-11T09:25:52;-1.40;99.90
4856;DHT22;2442;48.676;7.986;2022-12-11T09:28:20;-1.40;99.90
4856;DHT22;2442;48.676;7.986;2022-12-11T09:30:47;-1.40;99.90
4856;DHT22;2442;48.676;7.986;2022-12-11T09:33:14;-1.30;99.90
4856;DHT22;2442;48.676;7.986;2022-12-11T09:35:41;-1.30;99.90
4856;DHT22;2442;48.676;7.986;2022-12-11T09:38:08;-1.40;99.90
4856;DHT22;2442;48.676;7.986;2022-12-11T09:40:39;-1.30;99.90
4856;DHT22;2442;48.676;7.986;2022-12-11T09:43:16;-1.30;99.90
4856;DHT22;2442;48.676;7.986;2022-12-11T09:45:45;-1.20;99.90
4856;DHT22;2442;48.676;7.986;2022-12-11T09:48:15;-1.20;99.90
4856;DHT22;2442;48.676;7.986;2022-12-11T09:50:47;-1.20;99.90
4856;DHT22;2442;48.676;7.986;2022-12-11T09:53:20;-1.20;99.90
4856;DHT22;2442;48.676;7.986;2022-12-11T09:55:55;-1.20;99.90
4856;DHT22;2442;48.676;7.986;2022-12-11T09:58:29;-1.20;99.90
4856;DHT22;2442;48.676;7.986;2022-12-11T10:01:04;-1.10;99.90
4856;DHT22;2442;48.676;7.986;2022-12-11T10:03:45;-1.10;99.90
4856;DHT22;2442;48.676;7.986;2022-12-11T10:06:21;-1.10;99.90
4856;DHT22;2442;48.676;7.986;2022-12-11T10:08:58;-1.10;99.90
4856;DHT22;2442;48.676;7.986;2022-12-11T10:11:49;-1.10;99.90
4856;DHT22;2442;48.676;7.986;2022-12-11T10:14:27;-1.10;99.90
4856;DHT22;2442;48.676;7.986;2022-12-11T10:17:04;-1.00;99.90
4856;DHT22;2442;48.676;7.986;2022-12-11T10:19:33;-1.00;99.90
4856;DHT22;2442;48.676;7.986;2022-12-11T10:22:01;-0.90;99.90
4856;DHT22;2442;48.676;7.986;2022-12-11T10:24:35;-1.00;99.90
4856;DHT22;2442;48.676;7.986;2022-12-11T10:27:13;-0.80;99.90
4856;DHT22;2442;48.676;7.986;2022-12-11T10:29:40;-1.00;99.90
4856;DHT22;2442;48.676;7.986;2022-12-11T10:32:19;-1.00;99.90
4856;DHT22;2442;48.676;7.986;2022-12-11T10:34:51;-0.90;99.90
4856;DHT22;2442;48.676;7.986;2022-12-11T10:37:20;-0.90;99.90
4856;DHT22;2442;48.676;7.986;2022-12-11T10:39:47;-0.80;99.90
4856;DHT22;2442;48.676;7.986;2022-12-11T10:42:18;-0.80;99.90
4856;DHT22;2442;48.676;7.986;2022-12-11T10:44:56;-0.80;99.90
4856;DHT22;2442;48.676;7.986;2022-12-11T10:47:25;-0.80;99.90
4856;DHT22;2442;48.676;7.986;2022-12-11T10:49:54;-0.70;99.90
4856;DHT22;2442;48.676;7.986;2022-12-11T10:52:25;-0.70;99.90
4856;DHT22;2442;48.676;7.986;2022-12-11T10:54:57;-0.70;99.90
4856;DHT22;2442;48.676;7.986;2022-12-11T10:57:27;-0.60;99.90
4856;DHT22;2442;48.676;7.986;2022-12-11T10:59:55;-0.50;99.90
4856;DHT22;2442;48.676;7.986;2022-12-11T11:02:26;-0.50;99.90
4856;DHT22;2442;48.676;7.986;2022-12-11T11:04:56;-0.40;99.90
4856;DHT22;2442;48.676;7.986;2022-12-11T11:07:25;-0.50;99.90
4856;DHT22;2442;48.676;7.986;2022-12-11T11:10:13;-0.40;99.90
4856;DHT22;2442;48.676;7.986;2022-12-11T11:12:42;-0.30;99.90
4856;DHT22;2442;48.676;7.986;2022-12-11T11:15:11;-0.30;99.90
4856;DHT22;2442;48.676;7.986;2022-12-11T11:17:44;-0.30;99.90
4856;DHT22;2442;48.676;7.986;2022-12-11T11:20:14;-0.30;99.90
4856;DHT22;2442;48.676;7.986;2022-12-11T11:22:44;-0.30;99.90
4856;DHT22;2442;48.676;7.986;2022-12-11T11:25:16;-0.10;99.90
4856;DHT22;2442;48.676;7.986;2022-12-11T11:27:49;-0.30;99.90
4856;DHT22;2442;48.676;7.986;2022-12-11T11:30:21;-0.30;99.90
4856;DHT22;2442;48.676;7.986;2022-12-11T11:32:51;-0.30;99.90
4856;DHT22;2442;48.676;7.986;2022-12-11T11:35:21;-0.30;99.90
4856;DHT22;2442;48.676;7.986;2022-12-11T11:38:01;-0.30;99.90
4856;DHT22;2442;48.676;7.986;2022-12-11T11:40:30;-0.40;99.90
4856;DHT22;2442;48.676;7.986;2022-12-11T11:43:06;-0.50;99.90
4856;DHT22;2442;48.676;7.986;2022-12-11T11:45:43;-0.50;99.90
4856;DHT22;2442;48.676;7.986;2022-12-11T11:48:23;-0.40;99.90
4856;DHT22;2442;48.676;7.986;2022-12-11T11:50:51;-0.40;99.90
4856;DHT22;2442;48.676;7.986;2022-12-11T11:53:24;-0.60;99.90
4856;DHT22;2442;48.676;7.986;2022-12-11T11:55:58;-0.60;99.90
4856;DHT22;2442;48.676;7.986;2022-12-11T11:58:35;-0.60;99.90
4856;DHT22;2442;48.676;7.986;2022-12-11T12:01:02;-0.40;99.90
4856;DHT22;2442;48.676;7.986;2022-12-11T12:03:30;-0.40;99.90
4856;DHT22;2442;48.676;7.986;2022-12-11T12:06:06;-0.40;99.90
4856;DHT22;2442;48.676;7.986;2022-12-11T12:08:41;-0.40;99.90
4856;DHT22;2442;48.676;7.986;2022-12-11T12:11:19;-0.40;99.90
4856;DHT22;2442;48.676;7.986;2022-12-11T12:13:54;-0.40;99.90
4856;DHT22;2442;48.676;7.986;2022-12-11T12:16:36;-0.40;99.90
4856;DHT22;2442;48.676;7.986;2022-12-11T12:19:15;-0.40;99.90
4856;DHT22;2442;48.676;7.986;2022-12-11T12:21:47;-0.30;99.90
4856;DHT22;2442;48.676;7.986;2022-12-11T12:24:24;-0.30;99.90
4856;DHT22;2442;48.676;7.986;2022-12-11T12:26:59;-0.20;99.90
4856;DHT22;2442;48.676;7.986;2022-12-11T12:29:36;-0.20;99.90
4856;DHT22;2442;48.676;7.986;2022-12-11T12:32:11;-0.20;99.90
4856;DHT22;2442;48.676;7.986;2022-12-11T12:34:50;-0.20;99.90
4856;DHT22;2442;48.676;7.986;2022-12-11T12:37:26;-0.10;99.90
4856;DHT22;2442;48.676;7.986;2022-12-11T12:40:07;-0.10;99.90
4856;DHT22;2442;48.676;7.986;2022-12-11T12:42:40;0.00;99.90
4856;DHT22;2442;48.676;7.986;2022-12-11T12:45:17;0.10;99.90
4856;DHT22;2442;48.676;7.986;2022-12-11T12:47:48;-0.10;99.90
4856;DHT22;2442;48.676;7.986;2022-12-11T12:50:20;-0.10;99.90
4856;DHT22;2442;48.676;7.986;2022-12-11T12:52:49;0.10;99.90
4856;DHT22;2442;48.676;7.986;2022-12-11T12:55:20;0.10;99.90
4856;DHT22;2442;48.676;7.986;2022-12-11T12:57:49;0.00;99.90
4856;DHT22;2442;48.676;7.986;2022-12-11T13:00:32;0.10;99.90
4856;DHT22;2442;48.676;7.986;2022-12-11T13:03:02;0.20;99.90
4856;DHT22;2442;48.676;7.986;2022-12-11T13:05:41;0.30;99.90
4856;DHT22;2442;48.676;7.986;2022-12-11T13:08:09;0.20;99.90
4856;DHT22;2442;48.676;7.986;2022-12-11T13:10:38;0.10;99.90
4856;DHT22;2442;48.676;7.986;2022-12-11T13:13:31;0.20;99.90
4856;DHT22;2442;48.676;7.986;2022-12-11T13:16:07;0.10;99.90
4856;DHT22;2442;48.676;7.986;2022-12-11T13:18:35;0.20;99.90
4856;DHT22;2442;48.676;7.986;2022-12-11T13:21:27;0.20;99.90
4856;DHT22;2442;48.676;7.986;2022-12-11T13:23:54;0.20;99.90
4856;DHT22;2442;48.676;7.986;2022-12-11T13:26:28;0.10;99.90
4856;DHT22;2442;48.676;7.986;2022-12-11T13:28:55;0.10;99.90
4856;DHT22;2442;48.676;7.986;2022-12-11T13:31:31;0.10;99.90
4856;DHT22;2442;48.676;7.986;2022-12-11T13:34:06;0.10;99.90
4856;DHT22;2442;48.676;7.986;2022-12-11T13:36:37;0.00;99.90
4856;DHT22;2442;48.676;7.986;2022-12-11T13:39:07;0.00;99.90
4856;DHT22;2442;48.676;7.986;2022-12-11T13:41:45;-0.10;99.90
4856;DHT22;2442;48.676;7.986;2022-12-11T13:44:18;-0.10;99.90
4856;DHT22;2442;48.676;7.986;2022-12-11T13:46:48;0.00;99.90
4856;DHT22;2442;48.676;7.986;2022-12-11T13:49:21;0.10;99.90
4856;DHT22;2442;48.676;7.986;2022-12-11T13:51:54;0.10;99.90
4856;DHT22;2442;48.676;7.986;2022-12-11T13:54:22;0.10;99.90
4856;DHT22;2442;48.676;7.986;2022-12-11T13:56:54;0.10;99.90
4856;DHT22;2442;48.676;7.986;2022-12-11T13:59:26;0.10;99.90
4856;DHT22;2442;48.676;7.986;2022-12-11T14:01:56;0.00;99.90
4856;DHT22;2442;48.676;7.986;2022-12-11T14:04:25;0.00;99.90
4856;DHT22;2442;48.676;7.986;2022-12-11T14:06:55;0.00;99.90
4856;DHT22;2442;48.676;7.986;2022-12-11T14:09:24;0.00;99.90
4856;DHT22;2442;48.676;7.986;2022-12-11T14:11:52;0.00;99.90
4856;DHT22;2442;48.676;7.986;2022-12-11T14:14:24;0.00;99.90
4856;DHT22;2442;48.676;7.986;2022-12-11T14:16:53;0.00;99.90
4856;DHT22;2442;48.676;7.986;2022-12-11T14:19:21;0.00;99.90
4856;DHT22;2442;48.676;7.986;2022-12-11T14:21:59;0.00;99.90
4856;DHT22;2442;48.676;7.986;2022-12-11T14:24:26;-0.10;99.90
4856;DHT22;2442;48.676;7.986;2022-12-11T14:26:54;-0.10;99.90
4856;DHT22;2442;48.676;7.986;2022-12-11T14:29:26;-0.10;99.90
4856;DHT22;2442;48.676;7.986;2022-12-11T14:31:54;0.00;99.90
4856;DHT22;2442;48.676;7.986;2022-12-11T14:34:24;-0.10;99.90
4856;DHT22;2442;48.676;7.986;2022-12-11T14:36:53;0.00;99.90
4856;DHT22;2442;48.676;7.986;2022-12-11T14:39:24;0.00;99.90
4856;DHT22;2442;48.676;7.986;2022-12-11T14:41:57;0.00;99.90
4856;DHT22;2442;48.676;7.986;2022-12-11T14:44:27;0.00;99.90
4856;DHT22;2442;48.676;7.986;2022-12-11T14:46:57;0.00;99.90
4856;DHT22;2442;48.676;7.986;2022-12-11T14:49:31;0.00;99.90
4856;DHT22;2442;48.676;7.986;2022-12-11T14:52:00;0.00;99.90
4856;DHT22;2442;48.676;7.986;2022-12-11T14:54:32;-0.10;99.90
4856;DHT22;2442;48.676;7.986;2022-12-11T14:57:00;-0.20;99.90
4856;DHT22;2442;48.676;7.986;2022-12-11T14:59:31;-0.20;99.90
4856;DHT22;2442;48.676;7.986;2022-12-11T15:02:21;-0.40;99.90
4856;DHT22;2442;48.676;7.986;2022-12-11T15:05:10;-0.40;99.90
4856;DHT22;2442;48.676;7.986;2022-12-11T15:07:38;-0.50;99.90
4856;DHT22;2442;48.676;7.986;2022-12-11T15:10:21;-0.50;99.90
4856;DHT22;2442;48.676;7.986;2022-12-11T15:12:48;-0.60;99.90
4856;DHT22;2442;48.676;7.986;2022-12-11T15:15:16;-0.60;99.90
4856;DHT22;2442;48.676;7.986;2022-12-11T15:17:43;-0.60;99.90
4856;DHT22;2442;48.676;7.986;2022-12-11T15:20:21;-0.60;99.90
4856;DHT22;2442;48.676;7.986;2022-12-11T15:22:48;-0.60;99.90
4856;DHT22;2442;48.676;7.986;2022-12-11T15:25:21;-0.60;99.90
4856;DHT22;2442;48.676;7.986;2022-12-11T15:27:50;-0.60;99.90
4856;DHT22;2442;48.676;7.986;2022-12-11T15:30:26;-0.70;99.90
4856;DHT22;2442;48.676;7.986;2022-12-11T15:35:57;-0.70;99.90
4856;DHT22;2442;48.676;7.986;2022-12-11T15:38:30;-0.70;99.90
4856;DHT22;2442;48.676;7.986;2022-12-11T15:40:59;-0.70;99.90
4856;DHT22;2442;48.676;7.986;2022-12-11T15:43:27;-0.70;99.90
4856;DHT22;2442;48.676;7.986;2022-12-11T15:45:54;-0.70;99.90
4856;DHT22;2442;48.676;7.986;2022-12-11T15:48:21;-0.70;99.90
4856;DHT22;2442;48.676;7.986;2022-12-11T15:50:48;-0.70;99.90
4856;DHT22;2442;48.676;7.986;2022-12-11T15:53:15;-0.70;99.90
4856;DHT22;2442;48.676;7.986;2022-12-11T15:55:42;-0.70;99.90
4856;DHT22;2442;48.676;7.986;2022-12-11T15:58:15;-0.70;99.90
4856;DHT22;2442;48.676;7.986;2022-12-11T16:00:42;-0.70;99.90
4856;DHT22;2442;48.676;7.986;2022-12-11T16:03:13;-0.60;99.90
4856;DHT22;2442;48.676;7.986;2022-12-11T16:05:41;-0.60;99.90
4856;DHT22;2442;48.676;7.986;2022-12-11T16:08:11;-0.60;99.90
4856;DHT22;2442;48.676;7.986;2022-12-11T16:10:40;-0.60;99.90
4856;DHT22;2442;48.676;7.986;2022-12-11T16:13:07;-0.70;99.90
4856;DHT22;2442;48.676;7.986;2022-12-11T16:15:36;-0.60;99.90
4856;DHT22;2442;48.676;7.986;2022-12-11T16:18:05;-0.70;99.90
4856;DHT22;2442;48.676;7.986;2022-12-11T16:20:33;-0.70;99.90
4856;DHT22;2442;48.676;7.986;2022-12-11T16:23:00;-0.70;99.90
4856;DHT22;2442;48.676;7.986;2022-12-11T16:25:27;-0.90;99.90
4856;DHT22;2442;48.676;7.986;2022-12-11T16:27:55;-0.70;99.90